Hillsboro, IN (47949)

1:21 AM EDT on August 02, 2014 (GMT -0400)
Wabash College Campus (KINCRAWF3) Elev 778 ft | 40.04 °N, 86.91 °W | Change Station

Current weather conditions updated 22 seconds ago

Overcast
Overcast
64.8 °F
Feels Like 64.8 °F
N
1.6
Wind Variable Wind from South
Gusts 1.6 mph

Today is forecast to be Much Cooler than yesterday. Partly cloudy, chance of a thunderstorm.

Today
High -- | Low -- °F
--% Chance of Precip.
Yesterday
High -- | Low -- °F
Precip. -- in
6:47 AM 9:01 PM
Waxing Crescent, 32% visible
Pressure 30.10 in
Visibility 6.0 miles
Clouds Overcast 10000 ft
Dew Point 62 °F
Humidity 90%
Rainfall 0.00 in
Snow Depth Not available.
UV 0 out of 12
Pollen 7.70 out of 12
Air Quality Not available.
Flu Activity Not available.
METAR KLAF 020454Z AUTO 25004KT 6SM BR OVC100 17/17 A3012 RMK AO2 SLP193 T01720167 402830133 $

More Conditions Fewer Conditions

Pressure 30.10 in
Visibility 6.0 miles
Clouds Overcast 10000 ft
Dew Point 62 °F
Humidity 90%
Rainfall 0.00 in
Snow Depth Not available.
UV 0 out of 12
Pollen 7.70 out of 12
Air Quality Not available.
Flu Activity Not available.
METAR KLAF 020454Z AUTO 25004KT 6SM BR OVC100 17/17 A3012 RMK AO2 SLP193 T01720167 402830133 $

More Conditions Fewer Conditions

10-Day Weather Forecast

Almanac

Astronomy

Aug. 02, 2014 Rise Set
Actual Time 6:47 AM EDT 9:01 PM EDT
Civil Twilight 6:17 AM EDT 9:31 PM EDT
Nautical Twilight 5:40 AM EDT 10:08 PM EDT
Astronomical Twilight 4:59 AM EDT 10:49 PM EDT
Moon 1:09 PM EDT No Moon Set
Length of Visible Light 15h 14m
Length of Day
14h 13m
Tomorrow will be 2m 2s shorter.
Waxing Crescent, 32% of the Moon is Illuminated
Today
Waxing Crescent
Aug 3
First Quarter
Aug 10
Full
Aug 17
Last Quarter
Aug 25
New

Today's Extremes

State Highs State Lows

Community

WunderPhotos

Upload Photos

1,739,825 photos uploaded!

Nearby

Snow Depth

Station Depth Elevation
No new snow has been reported.

Earthquake Activity

City Distance Mag. Time & Date
No recent earthquake activity has been reported nearby.
Minimum magnitude displayed is 2.5.

Coastal Water Temperatures

Place Temperature
No Stations Reporting

Nearby Weather Stations

Station Location Temp. Dew Point Humidity Wind Precip. Elev Updated Type
Wabash College Campus, Crawfordsville, IN 64.8 °F 62 °F 90% South  at  1.6 mph 0.00 in / hr 778 ft 1:21 AM EDT Rapid Fire
Warren County, IN, Attica, IN 62.7 °F 62 °F 97% NNW  at  0.0 mph 0.00 in / hr 615 ft 1:21 AM EDT Normal
Romney, IN 63.9 °F 62 °F 94% SE  at  0.0 mph - / hr 738 ft 1:12 AM EDT Normal
116 S Walnut St, Ladoga, IN 65.6 °F 62 °F 87% ESE  at  0.0 mph 0.00 in / hr 833 ft 10:25 PM EDT Normal
Rockville, IN 66.5 °F 66 °F 98% NE  at  0.0 mph 0.11 in / hr 702 ft 1:21 AM EDT Rapid Fire

Show More Stations Show Fewer Stations